sensor_id;sensor_type;location;lat;lon;timestamp;temperature;humidity
19892;DHT22;10108;50.142;8.724;2023-08-21T00:01:22;22.60;99.90
19892;DHT22;10108;50.142;8.724;2023-08-21T00:03:48;22.60;99.90
19892;DHT22;10108;50.142;8.724;2023-08-21T00:06:14;22.60;99.90
19892;DHT22;10108;50.142;8.724;2023-08-21T00:08:40;22.60;99.90
19892;DHT22;10108;50.142;8.724;2023-08-21T00:11:06;22.60;99.90
19892;DHT22;10108;50.142;8.724;2023-08-21T00:13:32;22.60;99.90
19892;DHT22;10108;50.142;8.724;2023-08-21T00:15:59;22.50;99.90
19892;DHT22;10108;50.142;8.724;2023-08-21T00:18:25;22.50;99.90
19892;DHT22;10108;50.142;8.724;2023-08-21T00:20:51;22.50;99.90
19892;DHT22;10108;50.142;8.724;2023-08-21T00:23:17;22.50;99.90
19892;DHT22;10108;50.142;8.724;2023-08-21T00:25:46;22.50;99.90
19892;DHT22;10108;50.142;8.724;2023-08-21T00:28:13;22.50;99.90
19892;DHT22;10108;50.142;8.724;2023-08-21T00:30:39;22.50;99.90
19892;DHT22;10108;50.142;8.724;2023-08-21T00:33:05;22.50;99.90
19892;DHT22;10108;50.142;8.724;2023-08-21T00:35:32;22.50;99.90
19892;DHT22;10108;50.142;8.724;2023-08-21T00:37:58;22.40;99.90
19892;DHT22;10108;50.142;8.724;2023-08-21T00:40:24;22.40;99.90
19892;DHT22;10108;50.142;8.724;2023-08-21T00:42:50;22.40;99.90
19892;DHT22;10108;50.142;8.724;2023-08-21T00:45:16;22.40;99.90
19892;DHT22;10108;50.142;8.724;2023-08-21T00:47:43;22.40;99.90
19892;DHT22;10108;50.142;8.724;2023-08-21T00:50:09;22.40;99.90
19892;DHT22;10108;50.142;8.724;2023-08-21T00:52:39;22.40;99.90
19892;DHT22;10108;50.142;8.724;2023-08-21T00:55:07;22.30;99.90
19892;DHT22;10108;50.142;8.724;2023-08-21T00:57:34;22.30;99.90
19892;DHT22;10108;50.142;8.724;2023-08-21T01:00:01;22.30;99.90
19892;DHT22;10108;50.142;8.724;2023-08-21T01:02:27;22.30;99.90
19892;DHT22;10108;50.142;8.724;2023-08-21T01:04:53;22.30;99.90
19892;DHT22;10108;50.142;8.724;2023-08-21T01:07:19;22.30;99.90
19892;DHT22;10108;50.142;8.724;2023-08-21T01:09:50;22.20;99.90
19892;DHT22;10108;50.142;8.724;2023-08-21T01:12:34;22.30;99.90
19892;DHT22;10108;50.142;8.724;2023-08-21T01:15:06;22.20;99.90
19892;DHT22;10108;50.142;8.724;2023-08-21T01:17:39;22.20;99.90
19892;DHT22;10108;50.142;8.724;2023-08-21T01:20:07;22.20;99.90
19892;DHT22;10108;50.142;8.724;2023-08-21T01:22:41;22.20;99.90
19892;DHT22;10108;50.142;8.724;2023-08-21T01:25:12;22.20;99.90
19892;DHT22;10108;50.142;8.724;2023-08-21T01:27:45;22.20;99.90
19892;DHT22;10108;50.142;8.724;2023-08-21T01:30:12;22.20;99.90
19892;DHT22;10108;50.142;8.724;2023-08-21T01:32:51;22.20;99.90
19892;DHT22;10108;50.142;8.724;2023-08-21T01:35:18;22.20;99.90
19892;DHT22;10108;50.142;8.724;2023-08-21T01:37:46;22.10;99.90
19892;DHT22;10108;50.142;8.724;2023-08-21T01:40:12;22.10;99.90
19892;DHT22;10108;50.142;8.724;2023-08-21T01:42:45;22.10;99.90
19892;DHT22;10108;50.142;8.724;2023-08-21T01:45:14;22.10;99.90
19892;DHT22;10108;50.142;8.724;2023-08-21T01:47:40;22.10;99.90
19892;DHT22;10108;50.142;8.724;2023-08-21T01:50:08;22.10;99.90
19892;DHT22;10108;50.142;8.724;2023-08-21T01:52:34;22.10;99.90
19892;DHT22;10108;50.142;8.724;2023-08-21T01:55:00;22.10;99.90
19892;DHT22;10108;50.142;8.724;2023-08-21T01:57:26;22.10;99.90
19892;DHT22;10108;50.142;8.724;2023-08-21T01:59:52;22.10;99.90
19892;DHT22;10108;50.142;8.724;2023-08-21T02:02:18;22.10;99.90
19892;DHT22;10108;50.142;8.724;2023-08-21T02:04:44;22.10;99.90
19892;DHT22;10108;50.142;8.724;2023-08-21T02:07:10;22.10;99.90
19892;DHT22;10108;50.142;8.724;2023-08-21T02:09:37;22.10;99.90
19892;DHT22;10108;50.142;8.724;2023-08-21T02:12:03;22.10;99.90
19892;DHT22;10108;50.142;8.724;2023-08-21T02:14:29;22.00;99.90
19892;DHT22;10108;50.142;8.724;2023-08-21T02:16:55;22.00;99.90
19892;DHT22;10108;50.142;8.724;2023-08-21T02:19:21;22.00;99.90
19892;DHT22;10108;50.142;8.724;2023-08-21T02:21:47;22.00;99.90
19892;DHT22;10108;50.142;8.724;2023-08-21T02:24:13;22.00;99.90
19892;DHT22;10108;50.142;8.724;2023-08-21T02:26:39;22.00;99.90
19892;DHT22;10108;50.142;8.724;2023-08-21T02:29:05;22.00;99.90
19892;DHT22;10108;50.142;8.724;2023-08-21T02:31:33;22.00;99.90
19892;DHT22;10108;50.142;8.724;2023-08-21T02:33:59;22.00;99.90
19892;DHT22;10108;50.142;8.724;2023-08-21T02:36:25;22.00;99.90
19892;DHT22;10108;50.142;8.724;2023-08-21T02:38:51;22.00;99.90
19892;DHT22;10108;50.142;8.724;2023-08-21T02:41:17;22.00;99.90
19892;DHT22;10108;50.142;8.724;2023-08-21T02:43:44;22.00;99.90
19892;DHT22;10108;50.142;8.724;2023-08-21T02:46:10;22.00;99.90
19892;DHT22;10108;50.142;8.724;2023-08-21T02:48:36;22.00;99.90
19892;DHT22;10108;50.142;8.724;2023-08-21T02:51:02;22.00;99.90
19892;DHT22;10108;50.142;8.724;2023-08-21T02:53:31;22.00;99.90
19892;DHT22;10108;50.142;8.724;2023-08-21T02:55:58;22.00;99.90
19892;DHT22;10108;50.142;8.724;2023-08-21T02:58:24;22.00;99.90
19892;DHT22;10108;50.142;8.724;2023-08-21T03:00:50;22.00;99.90
19892;DHT22;10108;50.142;8.724;2023-08-21T03:03:16;22.00;99.90
19892;DHT22;10108;50.142;8.724;2023-08-21T03:05:42;22.00;99.90
19892;DHT22;10108;50.142;8.724;2023-08-21T03:08:08;21.90;99.90
19892;DHT22;10108;50.142;8.724;2023-08-21T03:10:34;21.90;99.90
19892;DHT22;10108;50.142;8.724;2023-08-21T03:13:05;21.90;99.90
19892;DHT22;10108;50.142;8.724;2023-08-21T03:15:32;21.90;99.90
19892;DHT22;10108;50.142;8.724;2023-08-21T03:17:58;21.90;99.90
19892;DHT22;10108;50.142;8.724;2023-08-21T03:20:25;21.90;99.90
19892;DHT22;10108;50.142;8.724;2023-08-21T03:22:51;21.90;99.90
19892;DHT22;10108;50.142;8.724;2023-08-21T03:25:17;21.90;99.90
19892;DHT22;10108;50.142;8.724;2023-08-21T03:27:43;21.90;99.90
19892;DHT22;10108;50.142;8.724;2023-08-21T03:30:15;21.90;99.90
19892;DHT22;10108;50.142;8.724;2023-08-21T03:32:42;21.90;99.90
19892;DHT22;10108;50.142;8.724;2023-08-21T03:35:08;21.90;99.90
19892;DHT22;10108;50.142;8.724;2023-08-21T03:37:35;21.90;99.90
19892;DHT22;10108;50.142;8.724;2023-08-21T03:40:03;21.80;99.90
19892;DHT22;10108;50.142;8.724;2023-08-21T03:42:29;21.80;99.90
19892;DHT22;10108;50.142;8.724;2023-08-21T03:44:56;21.80;99.90
19892;DHT22;10108;50.142;8.724;2023-08-21T03:47:23;21.80;99.90
19892;DHT22;10108;50.142;8.724;2023-08-21T03:49:56;21.80;99.90
19892;DHT22;10108;50.142;8.724;2023-08-21T03:52:24;21.80;99.90
19892;DHT22;10108;50.142;8.724;2023-08-21T03:54:50;21.80;99.90
19892;DHT22;10108;50.142;8.724;2023-08-21T03:57:16;21.80;99.90
19892;DHT22;10108;50.142;8.724;2023-08-21T03:59:42;21.80;99.90
19892;DHT22;10108;50.142;8.724;2023-08-21T04:02:08;21.80;99.90
19892;DHT22;10108;50.142;8.724;2023-08-21T04:04:35;21.80;99.90
19892;DHT22;10108;50.142;8.724;2023-08-21T04:07:01;21.80;99.90
19892;DHT22;10108;50.142;8.724;2023-08-21T04:09:27;21.70;99.90
19892;DHT22;10108;50.142;8.724;2023-08-21T04:11:54;21.70;99.90
19892;DHT22;10108;50.142;8.724;2023-08-21T04:14:20;21.70;99.90
19892;DHT22;10108;50.142;8.724;2023-08-21T04:16:47;21.70;99.90
19892;DHT22;10108;50.142;8.724;2023-08-21T04:19:13;21.70;99.90
19892;DHT22;10108;50.142;8.724;2023-08-21T04:21:39;21.70;99.90
19892;DHT22;10108;50.142;8.724;2023-08-21T04:24:05;21.70;99.90
19892;DHT22;10108;50.142;8.724;2023-08-21T04:26:31;21.70;99.90
19892;DHT22;10108;50.142;8.724;2023-08-21T04:28:57;21.70;99.90
19892;DHT22;10108;50.142;8.724;2023-08-21T04:31:23;21.70;99.90
19892;DHT22;10108;50.142;8.724;2023-08-21T04:33:49;21.70;99.90
19892;DHT22;10108;50.142;8.724;2023-08-21T04:36:16;21.70;99.90
19892;DHT22;10108;50.142;8.724;2023-08-21T04:38:45;21.60;99.90
19892;DHT22;10108;50.142;8.724;2023-08-21T04:41:11;21.70;99.90
19892;DHT22;10108;50.142;8.724;2023-08-21T04:43:41;21.60;99.90
19892;DHT22;10108;50.142;8.724;2023-08-21T04:46:09;21.60;99.90
19892;DHT22;10108;50.142;8.724;2023-08-21T04:48:37;21.60;99.90
19892;DHT22;10108;50.142;8.724;2023-08-21T04:51:03;21.60;99.90
19892;DHT22;10108;50.142;8.724;2023-08-21T04:53:29;21.60;99.90
19892;DHT22;10108;50.142;8.724;2023-08-21T04:56:00;21.60;99.90
19892;DHT22;10108;50.142;8.724;2023-08-21T04:58:26;21.60;99.90
19892;DHT22;10108;50.142;8.724;2023-08-21T05:00:53;21.60;99.90
19892;DHT22;10108;50.142;8.724;2023-08-21T05:03:19;21.60;99.90
19892;DHT22;10108;50.142;8.724;2023-08-21T05:05:52;21.60;99.90
19892;DHT22;10108;50.142;8.724;2023-08-21T05:08:22;21.60;99.90
19892;DHT22;10108;50.142;8.724;2023-08-21T05:10:48;21.60;99.90
19892;DHT22;10108;50.142;8.724;2023-08-21T05:13:14;21.60;99.90
19892;DHT22;10108;50.142;8.724;2023-08-21T05:15:43;21.60;99.90
19892;DHT22;10108;50.142;8.724;2023-08-21T05:18:09;21.60;99.90
19892;DHT22;10108;50.142;8.724;2023-08-21T05:20:36;21.60;99.90
19892;DHT22;10108;50.142;8.724;2023-08-21T05:23:02;21.60;99.90
19892;DHT22;10108;50.142;8.724;2023-08-21T05:25:32;21.60;99.90
19892;DHT22;10108;50.142;8.724;2023-08-21T05:27:58;21.60;99.90
19892;DHT22;10108;50.142;8.724;2023-08-21T05:30:25;21.60;99.90
19892;DHT22;10108;50.142;8.724;2023-08-21T05:32:51;21.60;99.90
19892;DHT22;10108;50.142;8.724;2023-08-21T05:35:17;21.60;99.90
19892;DHT22;10108;50.142;8.724;2023-08-21T05:37:45;21.60;99.90
19892;DHT22;10108;50.142;8.724;2023-08-21T05:40:11;21.60;99.90
19892;DHT22;10108;50.142;8.724;2023-08-21T05:42:38;21.60;99.90
19892;DHT22;10108;50.142;8.724;2023-08-21T05:45:05;21.70;99.90
19892;DHT22;10108;50.142;8.724;2023-08-21T05:47:33;21.70;99.90
19892;DHT22;10108;50.142;8.724;2023-08-21T05:49:59;21.70;99.90
19892;DHT22;10108;50.142;8.724;2023-08-21T05:52:25;21.70;99.90
19892;DHT22;10108;50.142;8.724;2023-08-21T05:54:52;21.70;99.90
19892;DHT22;10108;50.142;8.724;2023-08-21T05:57:18;21.70;99.90
19892;DHT22;10108;50.142;8.724;2023-08-21T05:59:45;21.70;99.90
19892;DHT22;10108;50.142;8.724;2023-08-21T06:02:12;21.80;99.90
19892;DHT22;10108;50.142;8.724;2023-08-21T06:04:40;21.80;99.90
19892;DHT22;10108;50.142;8.724;2023-08-21T06:07:08;21.80;99.90
19892;DHT22;10108;50.142;8.724;2023-08-21T06:09:35;21.90;99.90
19892;DHT22;10108;50.142;8.724;2023-08-21T06:12:05;21.90;99.90
19892;DHT22;10108;50.142;8.724;2023-08-21T06:14:32;22.00;99.90
19892;DHT22;10108;50.142;8.724;2023-08-21T06:17:02;22.00;99.90
19892;DHT22;10108;50.142;8.724;2023-08-21T06:19:29;22.00;99.90
19892;DHT22;10108;50.142;8.724;2023-08-21T06:21:55;22.00;99.90
19892;DHT22;10108;50.142;8.724;2023-08-21T06:24:22;22.00;99.90
19892;DHT22;10108;50.142;8.724;2023-08-21T06:26:53;22.00;99.90
19892;DHT22;10108;50.142;8.724;2023-08-21T06:29:19;22.00;99.90
19892;DHT22;10108;50.142;8.724;2023-08-21T06:31:46;22.00;99.90
19892;DHT22;10108;50.142;8.724;2023-08-21T06:34:13;22.00;99.90
19892;DHT22;10108;50.142;8.724;2023-08-21T06:36:39;22.00;99.90
19892;DHT22;10108;50.142;8.724;2023-08-21T06:39:05;22.00;99.90
19892;DHT22;10108;50.142;8.724;2023-08-21T06:41:31;22.00;99.90
19892;DHT22;10108;50.142;8.724;2023-08-21T06:43:57;22.00;99.90
19892;DHT22;10108;50.142;8.724;2023-08-21T06:46:24;22.00;99.90
19892;DHT22;10108;50.142;8.724;2023-08-21T06:48:50;22.00;99.90
19892;DHT22;10108;50.142;8.724;2023-08-21T06:51:16;22.00;99.90
19892;DHT22;10108;50.142;8.724;2023-08-21T06:53:42;22.00;99.90
19892;DHT22;10108;50.142;8.724;2023-08-21T06:56:08;22.00;99.90
19892;DHT22;10108;50.142;8.724;2023-08-21T06:58:35;22.00;99.90
19892;DHT22;10108;50.142;8.724;2023-08-21T07:01:01;22.10;99.90
19892;DHT22;10108;50.142;8.724;2023-08-21T07:03:28;22.10;99.90
19892;DHT22;10108;50.142;8.724;2023-08-21T07:05:57;22.10;99.90
19892;DHT22;10108;50.142;8.724;2023-08-21T07:08:24;22.10;99.90
19892;DHT22;10108;50.142;8.724;2023-08-21T07:10:51;22.10;99.90
19892;DHT22;10108;50.142;8.724;2023-08-21T07:13:18;22.10;99.90
19892;DHT22;10108;50.142;8.724;2023-08-21T07:15:44;22.10;99.90
19892;DHT22;10108;50.142;8.724;2023-08-21T07:18:10;22.10;99.90
19892;DHT22;10108;50.142;8.724;2023-08-21T07:20:36;22.10;99.90
19892;DHT22;10108;50.142;8.724;2023-08-21T07:23:03;22.20;99.90
19892;DHT22;10108;50.142;8.724;2023-08-21T07:25:29;22.20;99.90
19892;DHT22;10108;50.142;8.724;2023-08-21T07:27:55;22.20;99.90
19892;DHT22;10108;50.142;8.724;2023-08-21T07:30:22;22.20;99.90
19892;DHT22;10108;50.142;8.724;2023-08-21T07:32:48;22.20;99.90
19892;DHT22;10108;50.142;8.724;2023-08-21T07:35:15;22.20;99.90
19892;DHT22;10108;50.142;8.724;2023-08-21T07:37:45;22.20;99.90
19892;DHT22;10108;50.142;8.724;2023-08-21T07:40:11;22.20;99.90
19892;DHT22;10108;50.142;8.724;2023-08-21T07:42:38;22.20;99.90
19892;DHT22;10108;50.142;8.724;2023-08-21T07:45:04;22.20;99.90
19892;DHT22;10108;50.142;8.724;2023-08-21T07:47:30;22.30;99.90
19892;DHT22;10108;50.142;8.724;2023-08-21T07:49:57;22.30;99.90
19892;DHT22;10108;50.142;8.724;2023-08-21T07:52:25;22.30;99.90
19892;DHT22;10108;50.142;8.724;2023-08-21T07:54:53;22.30;99.90
19892;DHT22;10108;50.142;8.724;2023-08-21T07:57:19;22.30;99.90
19892;DHT22;10108;50.142;8.724;2023-08-21T07:59:45;22.30;99.90
19892;DHT22;10108;50.142;8.724;2023-08-21T08:02:12;22.30;99.90
19892;DHT22;10108;50.142;8.724;2023-08-21T08:04:39;22.30;99.90
19892;DHT22;10108;50.142;8.724;2023-08-21T08:07:05;22.30;99.90
19892;DHT22;10108;50.142;8.724;2023-08-21T08:09:31;22.30;99.90
19892;DHT22;10108;50.142;8.724;2023-08-21T08:11:57;22.30;99.90
19892;DHT22;10108;50.142;8.724;2023-08-21T08:14:23;22.30;99.90
19892;DHT22;10108;50.142;8.724;2023-08-21T08:16:49;22.30;99.90
19892;DHT22;10108;50.142;8.724;2023-08-21T08:19:15;22.30;99.90
19892;DHT22;10108;50.142;8.724;2023-08-21T08:21:41;22.30;99.90
19892;DHT22;10108;50.142;8.724;2023-08-21T08:24:07;22.40;99.90
19892;DHT22;10108;50.142;8.724;2023-08-21T08:26:34;22.40;99.90
19892;DHT22;10108;50.142;8.724;2023-08-21T08:29:00;22.40;99.90
19892;DHT22;10108;50.142;8.724;2023-08-21T08:31:26;22.40;99.90
19892;DHT22;10108;50.142;8.724;2023-08-21T08:33:54;22.40;99.90
19892;DHT22;10108;50.142;8.724;2023-08-21T08:36:20;22.40;99.90
19892;DHT22;10108;50.142;8.724;2023-08-21T08:38:46;22.40;99.90
19892;DHT22;10108;50.142;8.724;2023-08-21T08:41:39;22.50;99.90
19892;DHT22;10108;50.142;8.724;2023-08-21T08:44:08;22.50;99.90
19892;DHT22;10108;50.142;8.724;2023-08-21T08:46:35;22.50;99.90
19892;DHT22;10108;50.142;8.724;2023-08-21T08:49:03;22.40;99.90
19892;DHT22;10108;50.142;8.724;2023-08-21T08:51:31;22.50;99.90
19892;DHT22;10108;50.142;8.724;2023-08-21T08:54:00;22.40;99.90
19892;DHT22;10108;50.142;8.724;2023-08-21T08:56:26;22.40;99.90
19892;DHT22;10108;50.142;8.724;2023-08-21T08:58:52;22.40;99.90
19892;DHT22;10108;50.142;8.724;2023-08-21T09:01:18;22.40;99.90
19892;DHT22;10108;50.142;8.724;2023-08-21T09:03:44;22.50;99.90
19892;DHT22;10108;50.142;8.724;2023-08-21T09:06:11;22.40;99.90
19892;DHT22;10108;50.142;8.724;2023-08-21T09:08:37;22.40;99.90
19892;DHT22;10108;50.142;8.724;2023-08-21T09:11:03;22.50;99.90
19892;DHT22;10108;50.142;8.724;2023-08-21T09:13:31;22.50;99.90
19892;DHT22;10108;50.142;8.724;2023-08-21T09:15:58;22.50;99.90
19892;DHT22;10108;50.142;8.724;2023-08-21T09:18:24;22.50;99.90
19892;DHT22;10108;50.142;8.724;2023-08-21T09:20:50;22.40;99.90
19892;DHT22;10108;50.142;8.724;2023-08-21T09:23:17;22.40;99.90
19892;DHT22;10108;50.142;8.724;2023-08-21T09:25:46;22.40;99.90
19892;DHT22;10108;50.142;8.724;2023-08-21T09:28:14;22.50;99.90
19892;DHT22;10108;50.142;8.724;2023-08-21T09:30:45;22.50;99.90
19892;DHT22;10108;50.142;8.724;2023-08-21T09:33:12;22.50;99.90
19892;DHT22;10108;50.142;8.724;2023-08-21T09:35:38;22.50;99.90
19892;DHT22;10108;50.142;8.724;2023-08-21T09:38:05;22.50;99.90
19892;DHT22;10108;50.142;8.724;2023-08-21T09:40:32;22.60;99.90
19892;DHT22;10108;50.142;8.724;2023-08-21T09:42:58;22.60;99.90
19892;DHT22;10108;50.142;8.724;2023-08-21T09:45:27;22.60;99.90
19892;DHT22;10108;50.142;8.724;2023-08-21T09:47:54;22.60;99.90
19892;DHT22;10108;50.142;8.724;2023-08-21T09:50:21;22.60;99.90
19892;DHT22;10108;50.142;8.724;2023-08-21T09:52:49;22.50;99.90
19892;DHT22;10108;50.142;8.724;2023-08-21T09:55:15;22.50;99.90
19892;DHT22;10108;50.142;8.724;2023-08-21T09:57:42;22.50;99.90
19892;DHT22;10108;50.142;8.724;2023-08-21T10:00:08;22.40;99.90
19892;DHT22;10108;50.142;8.724;2023-08-21T10:02:48;22.40;99.90
19892;DHT22;10108;50.142;8.724;2023-08-21T10:05:18;22.40;99.90
19892;DHT22;10108;50.142;8.724;2023-08-21T10:07:47;22.50;99.90
19892;DHT22;10108;50.142;8.724;2023-08-21T10:10:15;22.50;99.90
19892;DHT22;10108;50.142;8.724;2023-08-21T10:12:41;22.50;99.90
19892;DHT22;10108;50.142;8.724;2023-08-21T10:15:08;22.50;99.90
19892;DHT22;10108;50.142;8.724;2023-08-21T10:17:38;22.50;99.90
19892;DHT22;10108;50.142;8.724;2023-08-21T10:20:07;22.50;99.90
19892;DHT22;10108;50.142;8.724;2023-08-21T10:22:49;22.50;99.90
19892;DHT22;10108;50.142;8.724;2023-08-21T10:25:18;22.50;99.90
19892;DHT22;10108;50.142;8.724;2023-08-21T10:27:52;22.60;99.90
19892;DHT22;10108;50.142;8.724;2023-08-21T10:30:26;22.60;99.90
19892;DHT22;10108;50.142;8.724;2023-08-21T10:32:54;22.60;99.90
19892;DHT22;10108;50.142;8.724;2023-08-21T10:35:23;22.60;99.90
19892;DHT22;10108;50.142;8.724;2023-08-21T10:38:12;22.70;99.90
19892;DHT22;10108;50.142;8.724;2023-08-21T10:40:39;22.70;99.90
19892;DHT22;10108;50.142;8.724;2023-08-21T10:43:41;22.60;99.90
19892;DHT22;10108;50.142;8.724;2023-08-21T10:46:07;22.60;99.90
19892;DHT22;10108;50.142;8.724;2023-08-21T10:48:37;22.70;99.90
19892;DHT22;10108;50.142;8.724;2023-08-21T10:51:05;22.70;99.90
19892;DHT22;10108;50.142;8.724;2023-08-21T10:53:32;22.60;99.90
19892;DHT22;10108;50.142;8.724;2023-08-21T10:56:05;22.60;99.90
19892;DHT22;10108;50.142;8.724;2023-08-21T10:58:44;22.60;99.90
19892;DHT22;10108;50.142;8.724;2023-08-21T11:01:13;22.60;99.90
19892;DHT22;10108;50.142;8.724;2023-08-21T11:03:40;22.60;99.90
19892;DHT22;10108;50.142;8.724;2023-08-21T11:06:10;22.70;99.90
19892;DHT22;10108;50.142;8.724;2023-08-21T11:08:36;22.70;99.90
19892;DHT22;10108;50.142;8.724;2023-08-21T11:11:04;22.70;99.90
19892;DHT22;10108;50.142;8.724;2023-08-21T11:13:31;22.70;99.90
19892;DHT22;10108;50.142;8.724;2023-08-21T11:15:58;22.70;99.90
19892;DHT22;10108;50.142;8.724;2023-08-21T11:18:36;22.70;99.90
19892;DHT22;10108;50.142;8.724;2023-08-21T11:21:06;22.70;99.90
19892;DHT22;10108;50.142;8.724;2023-08-21T11:23:41;22.70;99.90
19892;DHT22;10108;50.142;8.724;2023-08-21T11:26:11;22.70;99.90
19892;DHT22;10108;50.142;8.724;2023-08-21T11:28:38;22.70;99.90
19892;DHT22;10108;50.142;8.724;2023-08-21T11:31:06;22.70;99.90
19892;DHT22;10108;50.142;8.724;2023-08-21T11:33:32;22.80;99.90
19892;DHT22;10108;50.142;8.724;2023-08-21T11:35:59;22.80;99.90
19892;DHT22;10108;50.142;8.724;2023-08-21T11:38:26;22.90;99.90
19892;DHT22;10108;50.142;8.724;2023-08-21T11:40:54;23.00;99.90
19892;DHT22;10108;50.142;8.724;2023-08-21T11:43:20;23.10;99.90
19892;DHT22;10108;50.142;8.724;2023-08-21T11:45:46;23.20;99.90
19892;DHT22;10108;50.142;8.724;2023-08-21T11:48:13;23.20;99.90
19892;DHT22;10108;50.142;8.724;2023-08-21T11:50:39;23.20;99.90
19892;DHT22;10108;50.142;8.724;2023-08-21T11:53:05;23.20;99.90
19892;DHT22;10108;50.142;8.724;2023-08-21T11:55:32;23.10;99.90
19892;DHT22;10108;50.142;8.724;2023-08-21T11:57:58;23.10;99.90
19892;DHT22;10108;50.142;8.724;2023-08-21T12:00:28;23.10;99.90
19892;DHT22;10108;50.142;8.724;2023-08-21T12:02:56;23.10;99.90
19892;DHT22;10108;50.142;8.724;2023-08-21T12:05:23;23.10;99.90
19892;DHT22;10108;50.142;8.724;2023-08-21T12:07:49;23.10;99.90
19892;DHT22;10108;50.142;8.724;2023-08-21T12:10:25;23.10;99.90
19892;DHT22;10108;50.142;8.724;2023-08-21T12:12:52;23.10;99.90
19892;DHT22;10108;50.142;8.724;2023-08-21T12:15:18;23.20;99.90
19892;DHT22;10108;50.142;8.724;2023-08-21T12:17:45;23.20;99.90
19892;DHT22;10108;50.142;8.724;2023-08-21T12:20:11;23.30;99.90
19892;DHT22;10108;50.142;8.724;2023-08-21T12:22:38;23.40;99.90
19892;DHT22;10108;50.142;8.724;2023-08-21T12:25:05;23.40;99.90
19892;DHT22;10108;50.142;8.724;2023-08-21T12:27:31;23.40;99.90
19892;DHT22;10108;50.142;8.724;2023-08-21T12:29:57;23.40;99.90
19892;DHT22;10108;50.142;8.724;2023-08-21T12:32:23;23.30;99.90
19892;DHT22;10108;50.142;8.724;2023-08-21T12:34:49;23.30;99.90
19892;DHT22;10108;50.142;8.724;2023-08-21T12:37:15;23.30;99.90
19892;DHT22;10108;50.142;8.724;2023-08-21T12:39:41;23.60;99.90
19892;DHT22;10108;50.142;8.724;2023-08-21T12:42:07;23.90;99.90
19892;DHT22;10108;50.142;8.724;2023-08-21T12:44:34;24.00;99.90
19892;DHT22;10108;50.142;8.724;2023-08-21T12:47:00;24.10;99.90
19892;DHT22;10108;50.142;8.724;2023-08-21T12:49:26;24.20;99.90
19892;DHT22;10108;50.142;8.724;2023-08-21T12:51:52;24.10;99.90
19892;DHT22;10108;50.142;8.724;2023-08-21T12:54:18;24.00;99.90
19892;DHT22;10108;50.142;8.724;2023-08-21T12:56:44;23.90;99.90
19892;DHT22;10108;50.142;8.724;2023-08-21T12:59:13;23.90;99.90
19892;DHT22;10108;50.142;8.724;2023-08-21T13:01:39;23.90;99.90
19892;DHT22;10108;50.142;8.724;2023-08-21T13:04:06;23.80;99.90
19892;DHT22;10108;50.142;8.724;2023-08-21T13:06:32;23.80;99.90
19892;DHT22;10108;50.142;8.724;2023-08-21T13:08:58;23.80;99.90
19892;DHT22;10108;50.142;8.724;2023-08-21T13:11:24;23.80;99.90
19892;DHT22;10108;50.142;8.724;2023-08-21T13:13:50;23.80;99.90
19892;DHT22;10108;50.142;8.724;2023-08-21T13:16:16;23.80;99.90
19892;DHT22;10108;50.142;8.724;2023-08-21T13:18:42;23.80;99.90
19892;DHT22;10108;50.142;8.724;2023-08-21T13:21:08;23.90;99.90
19892;DHT22;10108;50.142;8.724;2023-08-21T13:23:35;23.90;99.90
19892;DHT22;10108;50.142;8.724;2023-08-21T13:26:01;24.00;99.90
19892;DHT22;10108;50.142;8.724;2023-08-21T13:28:27;24.00;99.90
19892;DHT22;10108;50.142;8.724;2023-08-21T13:30:53;24.00;99.90
19892;DHT22;10108;50.142;8.724;2023-08-21T13:33:19;24.00;99.90
19892;DHT22;10108;50.142;8.724;2023-08-21T13:35:46;24.00;99.90
19892;DHT22;10108;50.142;8.724;2023-08-21T13:38:12;23.90;99.90
19892;DHT22;10108;50.142;8.724;2023-08-21T13:40:39;23.80;99.90
19892;DHT22;10108;50.142;8.724;2023-08-21T13:43:06;23.80;99.90
19892;DHT22;10108;50.142;8.724;2023-08-21T13:45:36;23.80;99.90
19892;DHT22;10108;50.142;8.724;2023-08-21T13:48:03;23.80;99.90
19892;DHT22;10108;50.142;8.724;2023-08-21T13:50:30;23.80;99.90
19892;DHT22;10108;50.142;8.724;2023-08-21T13:52:56;23.80;99.90
19892;DHT22;10108;50.142;8.724;2023-08-21T13:55:22;23.80;99.90
19892;DHT22;10108;50.142;8.724;2023-08-21T13:57:48;23.80;99.90
19892;DHT22;10108;50.142;8.724;2023-08-21T14:00:15;23.80;99.90
19892;DHT22;10108;50.142;8.724;2023-08-21T14:02:43;23.80;99.90
19892;DHT22;10108;50.142;8.724;2023-08-21T14:05:10;23.80;99.90
19892;DHT22;10108;50.142;8.724;2023-08-21T14:07:37;23.80;99.90
19892;DHT22;10108;50.142;8.724;2023-08-21T14:10:05;23.80;99.90
19892;DHT22;10108;50.142;8.724;2023-08-21T14:12:31;23.80;99.90
19892;DHT22;10108;50.142;8.724;2023-08-21T14:14:59;23.80;99.90
19892;DHT22;10108;50.142;8.724;2023-08-21T14:17:25;23.80;99.90
19892;DHT22;10108;50.142;8.724;2023-08-21T14:19:51;23.80;99.90
19892;DHT22;10108;50.142;8.724;2023-08-21T14:22:18;23.80;99.90
19892;DHT22;10108;50.142;8.724;2023-08-21T14:24:44;23.80;99.90
19892;DHT22;10108;50.142;8.724;2023-08-21T14:27:10;23.90;99.90
19892;DHT22;10108;50.142;8.724;2023-08-21T14:29:36;23.90;99.90
19892;DHT22;10108;50.142;8.724;2023-08-21T14:32:02;23.80;99.90
19892;DHT22;10108;50.142;8.724;2023-08-21T14:34:29;23.80;99.90
19892;DHT22;10108;50.142;8.724;2023-08-21T14:36:55;23.80;99.90
19892;DHT22;10108;50.142;8.724;2023-08-21T14:39:23;23.80;99.90
19892;DHT22;10108;50.142;8.724;2023-08-21T14:41:56;23.80;99.90
19892;DHT22;10108;50.142;8.724;2023-08-21T14:44:23;23.80;99.90
19892;DHT22;10108;50.142;8.724;2023-08-21T14:46:51;23.80;99.90
19892;DHT22;10108;50.142;8.724;2023-08-21T14:49:18;23.70;99.90
19892;DHT22;10108;50.142;8.724;2023-08-21T14:51:44;23.80;99.90
19892;DHT22;10108;50.142;8.724;2023-08-21T14:54:10;23.80;99.90
19892;DHT22;10108;50.142;8.724;2023-08-21T14:56:36;23.70;99.90
19892;DHT22;10108;50.142;8.724;2023-08-21T14:59:03;23.60;99.90
19892;DHT22;10108;50.142;8.724;2023-08-21T15:01:30;23.60;99.90
19892;DHT22;10108;50.142;8.724;2023-08-21T15:03:56;23.60;99.90
19892;DHT22;10108;50.142;8.724;2023-08-21T15:06:22;23.60;99.90
19892;DHT22;10108;50.142;8.724;2023-08-21T15:08:48;23.60;99.90
19892;DHT22;10108;50.142;8.724;2023-08-21T15:11:14;23.60;99.90
19892;DHT22;10108;50.142;8.724;2023-08-21T15:13:40;23.60;99.90
19892;DHT22;10108;50.142;8.724;2023-08-21T15:16:07;23.60;99.90
19892;DHT22;10108;50.142;8.724;2023-08-21T15:18:33;23.50;99.90
19892;DHT22;10108;50.142;8.724;2023-08-21T15:20:59;23.50;99.90
19892;DHT22;10108;50.142;8.724;2023-08-21T15:23:25;23.60;99.90
19892;DHT22;10108;50.142;8.724;2023-08-21T15:25:51;23.60;99.90
19892;DHT22;10108;50.142;8.724;2023-08-21T15:28:18;23.60;99.90
19892;DHT22;10108;50.142;8.724;2023-08-21T15:30:44;23.60;99.90